createdAt,value
2023-01-12T09:36:59.002Z,7.97
2023-01-12T09:42:10.174Z,7.97
2023-01-12T09:47:06.366Z,8.03
2023-01-12T09:52:07.444Z,8.83
2023-01-12T09:57:10.871Z,8.30
2023-01-12T10:02:12.164Z,8.40
2023-01-12T10:07:09.960Z,6.63
2023-01-12T10:12:12.603Z,5.97
2023-01-12T10:17:24.093Z,5.83
2023-01-12T10:22:38.349Z,6.10
2023-01-12T10:27:33.850Z,7.07
2023-01-12T10:32:37.847Z,7.20
2023-01-12T10:37:45.231Z,8.10
2023-01-12T10:43:09.501Z,7.23
2023-01-12T10:48:21.268Z,5.17
2023-01-12T10:53:20.484Z,4.00
2023-01-12T10:58:23.010Z,4.60
2023-01-12T11:03:35.301Z,4.87
2023-01-12T11:08:31.476Z,3.57
2023-01-12T11:13:27.553Z,4.67
2023-01-12T11:18:32.814Z,3.33
2023-01-12T11:23:35.508Z,3.70
2023-01-12T11:28:33.593Z,2.77
2023-01-12T11:33:31.843Z,2.20
2023-01-12T11:38:33.117Z,3.00
2023-01-12T11:43:51.501Z,3.43
2023-01-12T11:48:50.232Z,2.73
2023-01-12T11:53:44.517Z,2.70
2023-01-12T11:58:48.599Z,2.60
2023-01-12T12:03:59.650Z,2.00
2023-01-12T12:09:02.596Z,2.30
2023-01-12T12:14:08.539Z,2.40
2023-01-12T12:19:16.986Z,3.13
2023-01-12T12:24:23.694Z,3.37
2023-01-12T12:29:41.246Z,3.90
2023-01-12T12:35:07.209Z,2.23
2023-01-12T12:40:11.651Z,2.00
2023-01-12T12:45:19.064Z,2.50
2023-01-12T12:50:20.079Z,2.03
2023-01-12T12:55:14.404Z,1.73
2023-01-12T13:00:31.373Z,1.70
2023-01-12T13:05:41.443Z,1.90
2023-01-12T13:10:35.569Z,1.50
2023-01-12T13:15:32.623Z,2.10
2023-01-12T13:21:01.627Z,1.70
2023-01-12T13:25:58.781Z,1.70
2023-01-12T13:30:55.697Z,2.37
2023-01-12T13:36:08.648Z,2.10
2023-01-12T13:41:11.592Z,1.70
2023-01-12T13:46:14.230Z,2.53
2023-01-12T13:51:17.872Z,2.20
2023-01-12T13:56:21.556Z,2.40
2023-01-12T14:01:22.586Z,2.33
2023-01-12T14:06:26.043Z,2.10
2023-01-12T14:11:42.048Z,2.60
2023-01-12T14:17:05.303Z,2.40
2023-01-12T14:22:04.558Z,2.53
2023-01-12T14:26:58.358Z,2.57
2023-01-12T14:31:54.873Z,3.43
2023-01-12T14:36:49.276Z,5.13
2023-01-12T14:42:05.378Z,4.03
2023-01-12T14:47:01.375Z,3.53
2023-01-12T14:51:57.015Z,3.63
2023-01-12T14:56:56.580Z,4.30
2023-01-12T15:01:51.170Z,4.33
2023-01-12T15:06:47.285Z,4.30
2023-01-12T15:11:46.358Z,5.03
2023-01-12T15:16:57.660Z,5.63
2023-01-12T15:22:10.380Z,5.00
2023-01-12T15:27:06.605Z,4.97
2023-01-12T15:32:00.486Z,5.67
2023-01-12T15:36:58.445Z,5.83
2023-01-12T15:42:09.441Z,6.63
2023-01-12T15:47:03.291Z,6.30
2023-01-12T15:51:59.481Z,8.93
2023-01-12T15:56:54.080Z,10.17
2023-01-12T16:01:49.778Z,21.40
2023-01-12T16:06:49.390Z,9.90
2023-01-12T16:11:47.363Z,8.03
2023-01-12T16:16:48.120Z,7.37
2023-01-12T16:21:55.947Z,6.67
2023-01-12T16:26:50.952Z,6.70
2023-01-12T16:31:45.505Z,6.97
2023-01-12T16:36:39.324Z,8.60
2023-01-12T16:41:33.089Z,9.17
2023-01-12T16:46:28.174Z,8.63
2023-01-12T16:51:22.194Z,14.83
